sensor_id;sensor_type;location;lat;lon;timestamp;pressure;altitude;pressure_sealevel;temperature
7830;BMP180;3960;51.86894000;5.39848000;2023-05-15T00:02:16;101574.13;;;12.42
7830;BMP180;3960;51.86894000;5.39848000;2023-05-15T00:04:42;101567.22;;;12.34
7830;BMP180;3960;51.86894000;5.39848000;2023-05-15T00:07:07;101585.06;;;12.35
7830;BMP180;3960;51.86894000;5.39848000;2023-05-15T00:09:32;101580.03;;;12.30
7830;BMP180;3960;51.86894000;5.39848000;2023-05-15T00:11:58;101582.34;;;12.35
7830;BMP180;3960;51.86894000;5.39848000;2023-05-15T00:14:24;101585.06;;;12.35
7830;BMP180;3960;51.86894000;5.39848000;2023-05-15T00:16:49;101581.97;;;12.33
7830;BMP180;3960;51.86894000;5.39848000;2023-05-15T00:19:15;101573.09;;;12.26
7830;BMP180;3960;51.86894000;5.39848000;2023-05-15T00:21:41;101573.06;;;12.29
7830;BMP180;3960;51.86894000;5.39848000;2023-05-15T00:24:06;101578.53;;;12.26
7830;BMP180;3960;51.86894000;5.39848000;2023-05-15T00:26:31;101580.09;;;12.23
7830;BMP180;3960;51.86894000;5.39848000;2023-05-15T00:28:56;101558.03;;;12.14
7830;BMP180;3960;51.86894000;5.39848000;2023-05-15T00:31:22;101570.44;;;12.15
7830;BMP180;3960;51.86894000;5.39848000;2023-05-15T00:33:47;101561.50;;;12.15
7830;BMP180;3960;51.86894000;5.39848000;2023-05-15T00:36:12;101544.53;;;12.04
7830;BMP180;3960;51.86894000;5.39848000;2023-05-15T00:38:38;101563.13;;;12.02
7830;BMP180;3960;51.86894000;5.39848000;2023-05-15T00:41:05;101563.94;;;12.02
7830;BMP180;3960;51.86894000;5.39848000;2023-05-15T00:43:30;101543.44;;;11.91
7830;BMP180;3960;51.86894000;5.39848000;2023-05-15T00:45:56;101563.94;;;11.99
7830;BMP180;3960;51.86894000;5.39848000;2023-05-15T00:48:22;101553.13;;;11.92
7830;BMP180;3960;51.86894000;5.39848000;2023-05-15T00:50:49;101548.88;;;11.91
7830;BMP180;3960;51.86894000;5.39848000;2023-05-15T00:53:16;101550.03;;;11.86
7830;BMP180;3960;51.86894000;5.39848000;2023-05-15T00:55:44;101546.22;;;11.77
7830;BMP180;3960;51.86894000;5.39848000;2023-05-15T00:58:10;101541.19;;;11.72
7830;BMP180;3960;51.86894000;5.39848000;2023-05-15T01:00:36;101554.34;;;11.77
7830;BMP180;3960;51.86894000;5.39848000;2023-05-15T01:03:04;101560.56;;;11.74
7830;BMP180;3960;51.86894000;5.39848000;2023-05-15T01:05:30;101543.53;;;11.66
7830;BMP180;3960;51.86894000;5.39848000;2023-05-15T01:08:07;101557.50;;;11.65
7830;BMP180;3960;51.86894000;5.39848000;2023-05-15T01:10:38;101557.13;;;11.63
7830;BMP180;3960;51.86894000;5.39848000;2023-05-15T01:13:04;101539.72;;;11.54
7830;BMP180;3960;51.86894000;5.39848000;2023-05-15T01:15:31;101545.53;;;11.56
7830;BMP180;3960;51.86894000;5.39848000;2023-05-15T01:17:56;101542.03;;;11.48
7830;BMP180;3960;51.86894000;5.39848000;2023-05-15T01:20:22;101540.50;;;11.44
7830;BMP180;3960;51.86894000;5.39848000;2023-05-15T01:23:11;101547.09;;;11.46
7830;BMP180;3960;51.86894000;5.39848000;2023-05-15T01:25:53;101549.81;;;11.43
7830;BMP180;3960;51.86894000;5.39848000;2023-05-15T01:28:31;101547.88;;;11.36
7830;BMP180;3960;51.86894000;5.39848000;2023-05-15T01:31:00;101542.09;;;11.31
7830;BMP180;3960;51.86894000;5.39848000;2023-05-15T01:33:32;101537.84;;;11.30
7830;BMP180;3960;51.86894000;5.39848000;2023-05-15T01:36:04;101517.75;;;11.17
7830;BMP180;3960;51.86894000;5.39848000;2023-05-15T01:38:37;101523.16;;;11.20
7830;BMP180;3960;51.86894000;5.39848000;2023-05-15T01:41:25;101517.34;;;11.18
7830;BMP180;3960;51.86894000;5.39848000;2023-05-15T01:43:56;101525.47;;;11.18
7830;BMP180;3960;51.86894000;5.39848000;2023-05-15T01:46:26;101510.78;;;11.09
7830;BMP180;3960;51.86894000;5.39848000;2023-05-15T01:48:53;101518.13;;;11.08
7830;BMP180;3960;51.86894000;5.39848000;2023-05-15T01:51:19;101530.16;;;11.11
7830;BMP180;3960;51.86894000;5.39848000;2023-05-15T01:53:45;101522.38;;;11.09
7830;BMP180;3960;51.86894000;5.39848000;2023-05-15T01:56:13;101519.31;;;11.07
7830;BMP180;3960;51.86894000;5.39848000;2023-05-15T01:58:39;101521.63;;;11.05
7830;BMP180;3960;51.86894000;5.39848000;2023-05-15T02:01:06;101514.28;;;10.99
7830;BMP180;3960;51.86894000;5.39848000;2023-05-15T02:03:33;101517.38;;;10.97
7830;BMP180;3960;51.86894000;5.39848000;2023-05-15T02:06:01;101523.19;;;10.99
7830;BMP180;3960;51.86894000;5.39848000;2023-05-15T02:08:26;101524.34;;;10.98
7830;BMP180;3960;51.86894000;5.39848000;2023-05-15T02:10:54;101508.09;;;10.88
7830;BMP180;3960;51.86894000;5.39848000;2023-05-15T02:13:21;101527.47;;;10.93
7830;BMP180;3960;51.86894000;5.39848000;2023-05-15T02:15:46;101526.31;;;10.91
7830;BMP180;3960;51.86894000;5.39848000;2023-05-15T02:18:11;101516.25;;;10.81
7830;BMP180;3960;51.86894000;5.39848000;2023-05-15T02:20:37;101532.88;;;10.87
7830;BMP180;3960;51.86894000;5.39848000;2023-05-15T02:23:02;101521.66;;;10.78
7830;BMP180;3960;51.86894000;5.39848000;2023-05-15T02:25:40;101523.22;;;10.82
7830;BMP180;3960;51.86894000;5.39848000;2023-05-15T02:28:14;101529.41;;;10.83
7830;BMP180;3960;51.86894000;5.39848000;2023-05-15T02:31:01;101526.31;;;10.81
7830;BMP180;3960;51.86894000;5.39848000;2023-05-15T02:36:04;101536.38;;;10.73
7830;BMP180;3960;51.86894000;5.39848000;2023-05-15T02:38:43;101535.22;;;10.67
7830;BMP180;3960;51.86894000;5.39848000;2023-05-15T02:41:08;101540.28;;;10.62
7830;BMP180;3960;51.86894000;5.39848000;2023-05-15T02:43:35;101527.47;;;10.55
7830;BMP180;3960;51.86894000;5.39848000;2023-05-15T02:46:02;101536.41;;;10.56
7830;BMP180;3960;51.86894000;5.39848000;2023-05-15T02:48:27;101530.97;;;10.52
7830;BMP180;3960;51.86894000;5.39848000;2023-05-15T02:50:53;101531.34;;;10.51
7830;BMP180;3960;51.86894000;5.39848000;2023-05-15T02:53:19;101528.63;;;10.47
7830;BMP180;3960;51.86894000;5.39848000;2023-05-15T02:55:44;101535.22;;;10.50
7830;BMP180;3960;51.86894000;5.39848000;2023-05-15T02:58:09;101521.31;;;10.44
7830;BMP180;3960;51.86894000;5.39848000;2023-05-15T03:00:35;101527.09;;;10.43
7830;BMP180;3960;51.86894000;5.39848000;2023-05-15T03:03:00;101533.28;;;10.47
7830;BMP180;3960;51.86894000;5.39848000;2023-05-15T03:05:25;101532.13;;;10.48
7830;BMP180;3960;51.86894000;5.39848000;2023-05-15T03:07:51;101526.31;;;10.42
7830;BMP180;3960;51.86894000;5.39848000;2023-05-15T03:10:16;101534.44;;;10.49
7830;BMP180;3960;51.86894000;5.39848000;2023-05-15T03:12:42;101532.50;;;10.50
7830;BMP180;3960;51.86894000;5.39848000;2023-05-15T03:15:07;101533.69;;;10.52
7830;BMP180;3960;51.86894000;5.39848000;2023-05-15T03:17:33;101528.28;;;10.52
7830;BMP180;3960;51.86894000;5.39848000;2023-05-15T03:19:58;101524.38;;;10.53
7830;BMP180;3960;51.86894000;5.39848000;2023-05-15T03:22:23;101522.47;;;10.54
7830;BMP180;3960;51.86894000;5.39848000;2023-05-15T03:24:49;101522.84;;;10.52
7830;BMP180;3960;51.86894000;5.39848000;2023-05-15T03:27:14;101519.34;;;10.55
7830;BMP180;3960;51.86894000;5.39848000;2023-05-15T03:29:40;101498.84;;;10.47
7830;BMP180;3960;51.86894000;5.39848000;2023-05-15T03:32:06;101497.28;;;10.53
7830;BMP180;3960;51.86894000;5.39848000;2023-05-15T03:34:31;101505.81;;;10.59
7830;BMP180;3960;51.86894000;5.39848000;2023-05-15T03:36:56;101519.75;;;10.61
7830;BMP180;3960;51.86894000;5.39848000;2023-05-15T03:39:22;101507.38;;;10.53
7830;BMP180;3960;51.86894000;5.39848000;2023-05-15T03:41:47;101513.53;;;10.60
7830;BMP180;3960;51.86894000;5.39848000;2023-05-15T03:44:12;101495.38;;;10.61
7830;BMP180;3960;51.86894000;5.39848000;2023-05-15T03:46:37;101494.59;;;10.57
7830;BMP180;3960;51.86894000;5.39848000;2023-05-15T03:49:03;101494.97;;;10.62
7830;BMP180;3960;51.86894000;5.39848000;2023-05-15T03:51:28;101490.72;;;10.61
7830;BMP180;3960;51.86894000;5.39848000;2023-05-15T03:53:53;101500.00;;;10.67
7830;BMP180;3960;51.86894000;5.39848000;2023-05-15T03:56:19;101483.00;;;10.60
7830;BMP180;3960;51.86894000;5.39848000;2023-05-15T03:58:45;101493.81;;;10.63
7830;BMP180;3960;51.86894000;5.39848000;2023-05-15T04:01:10;101500.41;;;10.62
7830;BMP180;3960;51.86894000;5.39848000;2023-05-15T04:03:35;101494.22;;;10.55
7830;BMP180;3960;51.86894000;5.39848000;2023-05-15T04:06:01;101506.22;;;10.64
7830;BMP180;3960;51.86894000;5.39848000;2023-05-15T04:08:26;101501.56;;;10.65
7830;BMP180;3960;51.86894000;5.39848000;2023-05-15T04:10:51;101509.28;;;10.70
7830;BMP180;3960;51.86894000;5.39848000;2023-05-15T04:13:17;101510.06;;;10.77
7830;BMP180;3960;51.86894000;5.39848000;2023-05-15T04:15:42;101508.50;;;10.80
7830;BMP180;3960;51.86894000;5.39848000;2023-05-15T04:18:07;101508.13;;;10.78
7830;BMP180;3960;51.86894000;5.39848000;2023-05-15T04:20:33;101520.50;;;10.82
7830;BMP180;3960;51.86894000;5.39848000;2023-05-15T04:22:58;101519.75;;;10.78
7830;BMP180;3960;51.86894000;5.39848000;2023-05-15T04:25:23;101528.25;;;10.80
7830;BMP180;3960;51.86894000;5.39848000;2023-05-15T04:27:49;101522.47;;;10.78
7830;BMP180;3960;51.86894000;5.39848000;2023-05-15T04:30:14;101511.22;;;10.80
7830;BMP180;3960;51.86894000;5.39848000;2023-05-15T04:32:39;101536.75;;;10.89
7830;BMP180;3960;51.86894000;5.39848000;2023-05-15T04:35:06;101517.03;;;10.85
7830;BMP180;3960;51.86894000;5.39848000;2023-05-15T04:37:37;101535.19;;;10.95
7830;BMP180;3960;51.86894000;5.39848000;2023-05-15T04:40:02;101535.59;;;10.97
7830;BMP180;3960;51.86894000;5.39848000;2023-05-15T04:42:28;101532.47;;;11.02
7830;BMP180;3960;51.86894000;5.39848000;2023-05-15T04:44:53;101528.59;;;11.06
7830;BMP180;3960;51.86894000;5.39848000;2023-05-15T04:47:18;101539.81;;;11.08
7830;BMP180;3960;51.86894000;5.39848000;2023-05-15T04:49:44;101531.31;;;11.10
7830;BMP180;3960;51.86894000;5.39848000;2023-05-15T04:52:09;101532.47;;;11.09
7830;BMP180;3960;51.86894000;5.39848000;2023-05-15T04:54:34;101540.59;;;11.12
7830;BMP180;3960;51.86894000;5.39848000;2023-05-15T04:56:59;101537.50;;;11.10
7830;BMP180;3960;51.86894000;5.39848000;2023-05-15T04:59:25;101529.38;;;11.03
7830;BMP180;3960;51.86894000;5.39848000;2023-05-15T05:01:52;101525.50;;;11.08
7830;BMP180;3960;51.86894000;5.39848000;2023-05-15T05:04:18;101537.09;;;11.12
7830;BMP180;3960;51.86894000;5.39848000;2023-05-15T05:06:44;101547.94;;;11.15
7830;BMP180;3960;51.86894000;5.39848000;2023-05-15T05:09:09;101556.47;;;11.14
7830;BMP180;3960;51.86894000;5.39848000;2023-05-15T05:11:35;101546.00;;;11.16
7830;BMP180;3960;51.86894000;5.39848000;2023-05-15T05:14:00;101542.50;;;11.15
7830;BMP180;3960;51.86894000;5.39848000;2023-05-15T05:16:25;101546.00;;;11.19
7830;BMP180;3960;51.86894000;5.39848000;2023-05-15T05:18:51;101551.78;;;11.28
7830;BMP180;3960;51.86894000;5.39848000;2023-05-15T05:21:16;101552.91;;;11.41
7830;BMP180;3960;51.86894000;5.39848000;2023-05-15T05:23:41;101560.25;;;11.48
7830;BMP180;3960;51.86894000;5.39848000;2023-05-15T05:26:07;101546.69;;;11.48
7830;BMP180;3960;51.86894000;5.39848000;2023-05-15T05:28:32;101538.97;;;11.53
7830;BMP180;3960;51.86894000;5.39848000;2023-05-15T05:30:57;101538.53;;;11.62
7830;BMP180;3960;51.86894000;5.39848000;2023-05-15T05:33:22;101543.91;;;11.72
7830;BMP180;3960;51.86894000;5.39848000;2023-05-15T05:35:48;101537.25;;;11.83
7830;BMP180;3960;51.86894000;5.39848000;2023-05-15T05:38:13;101543.03;;;11.89
7830;BMP180;3960;51.86894000;5.39848000;2023-05-15T05:40:38;101556.97;;;11.98
7830;BMP180;3960;51.86894000;5.39848000;2023-05-15T05:43:04;101544.19;;;11.95
7830;BMP180;3960;51.86894000;5.39848000;2023-05-15T05:45:29;101538.72;;;12.02
7830;BMP180;3960;51.86894000;5.39848000;2023-05-15T05:47:55;101557.22;;;12.17
7830;BMP180;3960;51.86894000;5.39848000;2023-05-15T05:50:21;101557.97;;;12.28
7830;BMP180;3960;51.86894000;5.39848000;2023-05-15T05:52:46;101547.84;;;12.32
7830;BMP180;3960;51.86894000;5.39848000;2023-05-15T05:55:12;101556.00;;;12.29
7830;BMP180;3960;51.86894000;5.39848000;2023-05-15T05:57:37;101550.16;;;12.30
7830;BMP180;3960;51.86894000;5.39848000;2023-05-15T06:00:03;101539.41;;;12.70
7830;BMP180;3960;51.86894000;5.39848000;2023-05-15T06:02:36;101542.09;;;13.14
7830;BMP180;3960;51.86894000;5.39848000;2023-05-15T06:05:02;101543.78;;;13.71
7830;BMP180;3960;51.86894000;5.39848000;2023-05-15T06:07:27;101550.81;;;14.25
7830;BMP180;3960;51.86894000;5.39848000;2023-05-15T06:09:52;101549.88;;;14.61
7830;BMP180;3960;51.86894000;5.39848000;2023-05-15T06:12:18;101554.66;;;14.80
7830;BMP180;3960;51.86894000;5.39848000;2023-05-15T06:14:43;101553.56;;;14.51
7830;BMP180;3960;51.86894000;5.39848000;2023-05-15T06:17:08;101540.06;;;14.18
7830;BMP180;3960;51.86894000;5.39848000;2023-05-15T06:19:34;101550.00;;;14.01
7830;BMP180;3960;51.86894000;5.39848000;2023-05-15T06:21:59;101562.50;;;13.95
7830;BMP180;3960;51.86894000;5.39848000;2023-05-15T06:24:24;101555.16;;;13.92
7830;BMP180;3960;51.86894000;5.39848000;2023-05-15T06:26:50;101553.63;;;13.91
7830;BMP180;3960;51.86894000;5.39848000;2023-05-15T06:29:16;101544.59;;;13.98
7830;BMP180;3960;51.86894000;5.39848000;2023-05-15T06:31:41;101557.97;;;14.15
7830;BMP180;3960;51.86894000;5.39848000;2023-05-15T06:34:06;101543.50;;;14.22
7830;BMP180;3960;51.86894000;5.39848000;2023-05-15T06:36:32;101554.19;;;14.36
7830;BMP180;3960;51.86894000;5.39848000;2023-05-15T06:38:57;101563.56;;;14.57
7830;BMP180;3960;51.86894000;5.39848000;2023-05-15T06:41:23;101560.13;;;14.54
7830;BMP180;3960;51.86894000;5.39848000;2023-05-15T06:43:48;101556.75;;;14.69
7830;BMP180;3960;51.86894000;5.39848000;2023-05-15T06:46:13;101555.28;;;14.87
7830;BMP180;3960;51.86894000;5.39848000;2023-05-15T06:48:41;101555.09;;;14.98
7830;BMP180;3960;51.86894000;5.39848000;2023-05-15T06:51:06;101560.94;;;15.19
7830;BMP180;3960;51.86894000;5.39848000;2023-05-15T06:53:31;101552.41;;;15.40
7830;BMP180;3960;51.86894000;5.39848000;2023-05-15T06:55:56;101552.41;;;15.95
7830;BMP180;3960;51.86894000;5.39848000;2023-05-15T06:58:22;101557.56;;;16.44
7830;BMP180;3960;51.86894000;5.39848000;2023-05-15T07:00:47;101561.38;;;17.10
7830;BMP180;3960;51.86894000;5.39848000;2023-05-15T07:03:12;101560.78;;;17.47
7830;BMP180;3960;51.86894000;5.39848000;2023-05-15T07:05:41;101550.38;;;17.95
7830;BMP180;3960;51.86894000;5.39848000;2023-05-15T07:08:07;101563.78;;;18.42
7830;BMP180;3960;51.86894000;5.39848000;2023-05-15T07:10:32;101557.28;;;19.07
7830;BMP180;3960;51.86894000;5.39848000;2023-05-15T07:12:57;101571.59;;;19.36
7830;BMP180;3960;51.86894000;5.39848000;2023-05-15T07:15:22;101564.63;;;18.77
7830;BMP180;3960;51.86894000;5.39848000;2023-05-15T07:17:48;101561.25;;;18.23
7830;BMP180;3960;51.86894000;5.39848000;2023-05-15T07:20:13;101557.97;;;18.53
7830;BMP180;3960;51.86894000;5.39848000;2023-05-15T07:22:38;101554.28;;;19.27
7830;BMP180;3960;51.86894000;5.39848000;2023-05-15T07:25:04;101561.50;;;19.76
7830;BMP180;3960;51.86894000;5.39848000;2023-05-15T07:27:30;101542.38;;;19.94
7830;BMP180;3960;51.86894000;5.39848000;2023-05-15T07:29:56;101538.19;;;20.11
7830;BMP180;3960;51.86894000;5.39848000;2023-05-15T07:32:21;101542.97;;;20.28
7830;BMP180;3960;51.86894000;5.39848000;2023-05-15T07:34:46;101538.13;;;20.32
7830;BMP180;3960;51.86894000;5.39848000;2023-05-15T07:37:11;101546.09;;;20.39
7830;BMP180;3960;51.86894000;5.39848000;2023-05-15T07:39:36;101535.75;;;20.61
7830;BMP180;3960;51.86894000;5.39848000;2023-05-15T07:42:02;101551.50;;;20.60
7830;BMP180;3960;51.86894000;5.39848000;2023-05-15T07:44:27;101526.38;;;20.41
7830;BMP180;3960;51.86894000;5.39848000;2023-05-15T07:46:54;101548.97;;;20.36
7830;BMP180;3960;51.86894000;5.39848000;2023-05-15T07:49:20;101548.09;;;20.08
7830;BMP180;3960;51.86894000;5.39848000;2023-05-15T07:51:45;101540.69;;;20.27
7830;BMP180;3960;51.86894000;5.39848000;2023-05-15T07:54:10;101530.75;;;20.29
7830;BMP180;3960;51.86894000;5.39848000;2023-05-15T07:56:36;101549.72;;;20.84
7830;BMP180;3960;51.86894000;5.39848000;2023-05-15T07:59:01;101531.09;;;21.33
7830;BMP180;3960;51.86894000;5.39848000;2023-05-15T08:01:27;101539.72;;;21.85
7830;BMP180;3960;51.86894000;5.39848000;2023-05-15T08:03:52;101537.47;;;22.16
7830;BMP180;3960;51.86894000;5.39848000;2023-05-15T08:06:18;101531.91;;;21.84
7830;BMP180;3960;51.86894000;5.39848000;2023-05-15T08:08:43;101540.41;;;21.53
7830;BMP180;3960;51.86894000;5.39848000;2023-05-15T08:11:08;101543.91;;;21.36
7830;BMP180;3960;51.86894000;5.39848000;2023-05-15T08:13:33;101535.50;;;21.39
7830;BMP180;3960;51.86894000;5.39848000;2023-05-15T08:15:59;101527.06;;;21.70
7830;BMP180;3960;51.86894000;5.39848000;2023-05-15T08:18:24;101536.84;;;21.80
7830;BMP180;3960;51.86894000;5.39848000;2023-05-15T08:20:49;101540.91;;;22.02
7830;BMP180;3960;51.86894000;5.39848000;2023-05-15T08:23:16;101527.69;;;21.65
7830;BMP180;3960;51.86894000;5.39848000;2023-05-15T08:25:41;101540.84;;;21.52
7830;BMP180;3960;51.86894000;5.39848000;2023-05-15T08:28:06;101540.09;;;21.51
7830;BMP180;3960;51.86894000;5.39848000;2023-05-15T08:30:32;101542.06;;;21.42
7830;BMP180;3960;51.86894000;5.39848000;2023-05-15T08:32:57;101538.88;;;21.34
7830;BMP180;3960;51.86894000;5.39848000;2023-05-15T08:35:22;101532.00;;;21.30
7830;BMP180;3960;51.86894000;5.39848000;2023-05-15T08:37:48;101535.06;;;21.41
7830;BMP180;3960;51.86894000;5.39848000;2023-05-15T08:40:13;101540.50;;;21.86
7830;BMP180;3960;51.86894000;5.39848000;2023-05-15T08:42:43;101533.34;;;21.61
7830;BMP180;3960;51.86894000;5.39848000;2023-05-15T08:45:11;101533.66;;;21.45
7830;BMP180;3960;51.86894000;5.39848000;2023-05-15T08:47:38;101522.81;;;21.33
7830;BMP180;3960;51.86894000;5.39848000;2023-05-15T08:52:40;101542.06;;;21.51
7830;BMP180;3960;51.86894000;5.39848000;2023-05-15T08:55:07;101537.66;;;21.44
7830;BMP180;3960;51.86894000;5.39848000;2023-05-15T08:57:33;101531.22;;;21.21
7830;BMP180;3960;51.86894000;5.39848000;2023-05-15T08:59:59;101532.63;;;21.07
7830;BMP180;3960;51.86894000;5.39848000;2023-05-15T09:02:25;101531.69;;;20.92
7830;BMP180;3960;51.86894000;5.39848000;2023-05-15T09:04:51;101535.50;;;20.77
7830;BMP180;3960;51.86894000;5.39848000;2023-05-15T09:07:16;101525.50;;;20.61
7830;BMP180;3960;51.86894000;5.39848000;2023-05-15T09:09:43;101524.13;;;20.57
7830;BMP180;3960;51.86894000;5.39848000;2023-05-15T09:12:14;101526.69;;;20.52
7830;BMP180;3960;51.86894000;5.39848000;2023-05-15T09:14:40;101504.31;;;20.32
7830;BMP180;3960;51.86894000;5.39848000;2023-05-15T09:17:05;101533.84;;;20.31
7830;BMP180;3960;51.86894000;5.39848000;2023-05-15T09:19:33;101536.38;;;20.17
7830;BMP180;3960;51.86894000;5.39848000;2023-05-15T09:22:15;101535.25;;;20.05
7830;BMP180;3960;51.86894000;5.39848000;2023-05-15T09:24:42;101540.44;;;20.03
7830;BMP180;3960;51.86894000;5.39848000;2023-05-15T09:27:07;101523.81;;;20.07
7830;BMP180;3960;51.86894000;5.39848000;2023-05-15T09:29:35;101533.41;;;20.02
7830;BMP180;3960;51.86894000;5.39848000;2023-05-15T09:32:09;101536.94;;;20.03
7830;BMP180;3960;51.86894000;5.39848000;2023-05-15T09:34:37;101529.06;;;20.23
7830;BMP180;3960;51.86894000;5.39848000;2023-05-15T09:37:05;101539.34;;;20.31
7830;BMP180;3960;51.86894000;5.39848000;2023-05-15T09:39:31;101538.59;;;20.40
7830;BMP180;3960;51.86894000;5.39848000;2023-05-15T09:42:13;101544.16;;;20.66
7830;BMP180;3960;51.86894000;5.39848000;2023-05-15T09:44:42;101540.25;;;20.85
7830;BMP180;3960;51.86894000;5.39848000;2023-05-15T09:47:09;101543.94;;;20.82
7830;BMP180;3960;51.86894000;5.39848000;2023-05-15T09:49:34;101541.09;;;20.64
7830;BMP180;3960;51.86894000;5.39848000;2023-05-15T09:52:00;101549.63;;;20.49
7830;BMP180;3960;51.86894000;5.39848000;2023-05-15T09:54:26;101550.34;;;20.31
7830;BMP180;3960;51.86894000;5.39848000;2023-05-15T09:56:52;101548.19;;;20.26
7830;BMP180;3960;51.86894000;5.39848000;2023-05-15T09:59:18;101540.41;;;19.94
7830;BMP180;3960;51.86894000;5.39848000;2023-05-15T10:01:47;101550.56;;;19.85
7830;BMP180;3960;51.86894000;5.39848000;2023-05-15T10:04:13;101541.44;;;19.67
7830;BMP180;3960;51.86894000;5.39848000;2023-05-15T10:06:44;101556.06;;;19.64
7830;BMP180;3960;51.86894000;5.39848000;2023-05-15T10:09:10;101542.22;;;19.46
7830;BMP180;3960;51.86894000;5.39848000;2023-05-15T10:11:40;101544.63;;;19.44
7830;BMP180;3960;51.86894000;5.39848000;2023-05-15T10:14:08;101554.50;;;19.32
7830;BMP180;3960;51.86894000;5.39848000;2023-05-15T10:16:35;101547.00;;;19.11
7830;BMP180;3960;51.86894000;5.39848000;2023-05-15T10:19:06;101547.16;;;18.83
7830;BMP180;3960;51.86894000;5.39848000;2023-05-15T10:21:33;101555.00;;;18.60
7830;BMP180;3960;51.86894000;5.39848000;2023-05-15T10:24:00;101555.78;;;18.35
7830;BMP180;3960;51.86894000;5.39848000;2023-05-15T10:26:39;101555.09;;;18.19
7830;BMP180;3960;51.86894000;5.39848000;2023-05-15T10:31:35;101555.41;;;17.96
7830;BMP180;3960;51.86894000;5.39848000;2023-05-15T10:34:01;101554.63;;;17.83
7830;BMP180;3960;51.86894000;5.39848000;2023-05-15T10:36:27;101555.38;;;17.71
7830;BMP180;3960;51.86894000;5.39848000;2023-05-15T10:38:52;101555.47;;;17.68
7830;BMP180;3960;51.86894000;5.39848000;2023-05-15T10:41:20;101562.88;;;17.55
7830;BMP180;3960;51.86894000;5.39848000;2023-05-15T10:43:47;101555.84;;;17.42
7830;BMP180;3960;51.86894000;5.39848000;2023-05-15T10:46:14;101555.09;;;17.25
7830;BMP180;3960;51.86894000;5.39848000;2023-05-15T10:48:40;101532.91;;;17.07
7830;BMP180;3960;51.86894000;5.39848000;2023-05-15T10:51:29;101543.66;;;17.14
7830;BMP180;3960;51.86894000;5.39848000;2023-05-15T10:53:56;101553.38;;;17.15
7830;BMP180;3960;51.86894000;5.39848000;2023-05-15T10:56:31;101552.16;;;17.04
7830;BMP180;3960;51.86894000;5.39848000;2023-05-15T10:59:04;101539.50;;;16.94
7830;BMP180;3960;51.86894000;5.39848000;2023-05-15T11:01:32;101549.59;;;16.97
7830;BMP180;3960;51.86894000;5.39848000;2023-05-15T11:04:15;101540.69;;;16.93
7830;BMP180;3960;51.86894000;5.39848000;2023-05-15T11:06:48;101535.00;;;16.87
7830;BMP180;3960;51.86894000;5.39848000;2023-05-15T11:14:20;101544.84;;;16.85
7830;BMP180;3960;51.86894000;5.39848000;2023-05-15T11:21:45;101557.16;;;16.77
7830;BMP180;3960;51.86894000;5.39848000;2023-05-15T11:24:11;101549.19;;;16.67
7830;BMP180;3960;51.86894000;5.39848000;2023-05-15T11:26:40;101543.03;;;16.63
7830;BMP180;3960;51.86894000;5.39848000;2023-05-15T11:29:17;101549.72;;;16.62
7830;BMP180;3960;51.86894000;5.39848000;2023-05-15T11:31:42;101548.69;;;16.56
7830;BMP180;3960;51.86894000;5.39848000;2023-05-15T11:34:08;101542.53;;;16.52
7830;BMP180;3960;51.86894000;5.39848000;2023-05-15T11:36:35;101546.88;;;16.49
7830;BMP180;3960;51.86894000;5.39848000;2023-05-15T11:39:09;101546.22;;;16.45
7830;BMP180;3960;51.86894000;5.39848000;2023-05-15T11:41:35;101540.84;;;16.42
7830;BMP180;3960;51.86894000;5.39848000;2023-05-15T11:44:01;101547.84;;;16.43
7830;BMP180;3960;51.86894000;5.39848000;2023-05-15T11:46:27;101542.94;;;16.34
7830;BMP180;3960;51.86894000;5.39848000;2023-05-15T11:48:53;101539.19;;;16.28
7830;BMP180;3960;51.86894000;5.39848000;2023-05-15T11:51:19;101543.06;;;16.27
7830;BMP180;3960;51.86894000;5.39848000;2023-05-15T11:53:45;101542.84;;;16.22
7830;BMP180;3960;51.86894000;5.39848000;2023-05-15T11:56:18;101546.75;;;16.21
7830;BMP180;3960;51.86894000;5.39848000;2023-05-15T11:58:43;101552.72;;;16.16
7830;BMP180;3960;51.86894000;5.39848000;2023-05-15T12:01:10;101550.47;;;16.11
7830;BMP180;3960;51.86894000;5.39848000;2023-05-15T12:03:36;101547.06;;;16.07
7830;BMP180;3960;51.86894000;5.39848000;2023-05-15T12:06:02;101541.25;;;16.05
7830;BMP180;3960;51.86894000;5.39848000;2023-05-15T12:08:34;101548.28;;;16.22
7830;BMP180;3960;51.86894000;5.39848000;2023-05-15T12:11:02;101539.22;;;16.44
7830;BMP180;3960;51.86894000;5.39848000;2023-05-15T12:13:29;101538.22;;;16.98
7830;BMP180;3960;51.86894000;5.39848000;2023-05-15T12:15:55;101540.88;;;17.58
7830;BMP180;3960;51.86894000;5.39848000;2023-05-15T12:18:21;101538.63;;;18.07
7830;BMP180;3960;51.86894000;5.39848000;2023-05-15T12:20:46;101541.06;;;18.42
7830;BMP180;3960;51.86894000;5.39848000;2023-05-15T12:23:15;101545.56;;;18.61
7830;BMP180;3960;51.86894000;5.39848000;2023-05-15T12:25:41;101532.72;;;18.58
7830;BMP180;3960;51.86894000;5.39848000;2023-05-15T12:28:07;101537.69;;;18.50
7830;BMP180;3960;51.86894000;5.39848000;2023-05-15T12:30:33;101538.88;;;18.49
7830;BMP180;3960;51.86894000;5.39848000;2023-05-15T12:33:03;101537.00;;;18.46
7830;BMP180;3960;51.86894000;5.39848000;2023-05-15T12:35:32;101527.34;;;18.54
7830;BMP180;3960;51.86894000;5.39848000;2023-05-15T12:37:59;101530.66;;;18.49
7830;BMP180;3960;51.86894000;5.39848000;2023-05-15T12:40:25;101528.25;;;18.51
7830;BMP180;3960;51.86894000;5.39848000;2023-05-15T12:42:52;101525.06;;;18.53
7830;BMP180;3960;51.86894000;5.39848000;2023-05-15T12:45:19;101526.38;;;18.48
7830;BMP180;3960;51.86894000;5.39848000;2023-05-15T12:47:47;101520.78;;;18.39